createdAt,value
2022-12-04T00:02:17.596Z,53.40
2022-12-04T00:04:44.629Z,52.85
2022-12-04T00:07:11.848Z,45.20
2022-12-04T00:09:39.104Z,36.22
2022-12-04T00:12:09.027Z,49.53
2022-12-04T00:14:54.470Z,51.22
2022-12-04T00:17:23.453Z,38.72
2022-12-04T00:19:50.612Z,53.00
2022-12-04T00:22:17.799Z,56.70
2022-12-04T00:24:44.966Z,54.80
2022-12-04T00:27:12.131Z,53.10
2022-12-04T00:29:38.883Z,47.58
2022-12-04T00:32:06.264Z,51.63
2022-12-04T00:34:33.095Z,49.53
2022-12-04T00:36:59.965Z,47.90
2022-12-04T00:39:27.158Z,58.03
2022-12-04T00:41:54.338Z,55.60
2022-12-04T00:44:21.499Z,46.47
2022-12-04T00:46:48.763Z,55.55
2022-12-04T00:49:15.940Z,47.75
2022-12-04T00:51:43.183Z,50.25
2022-12-04T00:54:10.367Z,36.15
2022-12-04T00:56:37.611Z,57.93
2022-12-04T00:59:04.840Z,55.10
2022-12-04T01:01:32.153Z,61.08
2022-12-04T01:03:59.455Z,49.17
2022-12-04T01:06:29.332Z,50.45
2022-12-04T01:08:57.179Z,49.20
2022-12-04T01:11:26.123Z,56.85
2022-12-04T01:13:53.476Z,48.38
2022-12-04T01:16:26.042Z,53.13
2022-12-04T01:18:53.366Z,57.45
2022-12-04T01:21:20.526Z,51.87
2022-12-04T01:23:48.120Z,56.35
2022-12-04T01:26:15.369Z,50.67
2022-12-04T01:28:42.821Z,51.10
2022-12-04T01:31:13.305Z,57.67
2022-12-04T01:33:41.583Z,47.53
2022-12-04T01:36:11.868Z,46.97
2022-12-04T01:38:39.525Z,56.03
2022-12-04T01:41:07.120Z,50.35
2022-12-04T01:43:36.277Z,56.92
2022-12-04T01:46:03.947Z,58.20
2022-12-04T01:48:46.500Z,48.92
2022-12-04T01:51:26.445Z,54.72
2022-12-04T01:53:57.402Z,44.53
2022-12-04T01:56:29.401Z,58.30
2022-12-04T01:58:58.764Z,54.53
2022-12-04T02:01:29.178Z,51.10
2022-12-04T02:03:56.480Z,55.22
2022-12-04T02:06:23.662Z,47.65
2022-12-04T02:08:51.028Z,50.95
2022-12-04T02:11:18.169Z,53.37
2022-12-04T02:13:58.527Z,54.17
2022-12-04T02:16:40.906Z,49.53
2022-12-04T02:19:45.227Z,52.88
2022-12-04T02:22:35.567Z,53.30
2022-12-04T02:25:20.377Z,60.03
2022-12-04T02:28:15.613Z,62.20
2022-12-04T02:30:43.441Z,59.80
2022-12-04T02:33:21.866Z,50.35
2022-12-04T02:36:15.972Z,51.22
2022-12-04T02:38:49.292Z,53.27
2022-12-04T02:41:23.734Z,60.22
2022-12-04T02:43:57.728Z,43.30
2022-12-04T02:46:24.924Z,51.53
2022-12-04T02:48:56.172Z,52.65
2022-12-04T02:51:26.318Z,61.63
2022-12-04T02:54:06.039Z,50.60
2022-12-04T02:56:39.404Z,52.75
2022-12-04T02:59:12.526Z,54.65
2022-12-04T03:01:44.695Z,44.53
2022-12-04T03:04:26.935Z,47.30
2022-12-04T03:07:17.682Z,53.78
2022-12-04T03:09:52.293Z,48.03
2022-12-04T03:12:34.383Z,47.80
2022-12-04T03:15:09.169Z,58.80
2022-12-04T03:18:09.128Z,49.83
2022-12-04T03:20:38.576Z,48.22
2022-12-04T03:23:12.833Z,42.17
2022-12-04T03:25:52.367Z,49.55
2022-12-04T03:28:31.505Z,49.47
2022-12-04T03:31:06.678Z,50.43
2022-12-04T03:33:42.420Z,52.13
2022-12-04T03:36:21.178Z,41.97
2022-12-04T03:39:15.986Z,51.85
2022-12-04T03:42:13.588Z,48.22
2022-12-04T03:44:48.939Z,50.57
2022-12-04T03:47:36.724Z,41.17
2022-12-04T03:50:14.475Z,47.70
2022-12-04T03:53:02.079Z,49.53
2022-12-04T03:55:56.773Z,52.55
2022-12-04T03:58:29.044Z,55.60
2022-12-04T04:00:58.221Z,41.92
2022-12-04T04:03:33.164Z,42.70
2022-12-04T04:06:15.822Z,51.00
2022-12-04T04:08:46.743Z,57.65
2022-12-04T04:11:26.236Z,53.90
2022-12-04T04:14:22.913Z,50.95
2022-12-04T04:17:15.925Z,55.95
2022-12-04T04:20:03.915Z,61.55
2022-12-04T04:22:55.763Z,50.78
2022-12-04T04:25:24.900Z,48.47
2022-12-04T04:27:53.632Z,55.15
2022-12-04T04:30:21.070Z,47.17
2022-12-04T04:32:53.907Z,59.30
2022-12-04T04:36:02.760Z,50.20
2022-12-04T04:38:42.642Z,59.37
2022-12-04T04:41:09.847Z,58.53
2022-12-04T04:43:55.948Z,53.00
2022-12-04T04:46:33.264Z,50.22
2022-12-04T04:49:03.980Z,51.17
2022-12-04T04:51:33.559Z,48.00
2022-12-04T04:54:05.986Z,53.63
2022-12-04T04:56:33.264Z,50.72
2022-12-04T04:59:00.466Z,55.47
2022-12-04T05:01:28.561Z,61.00
2022-12-04T05:03:55.776Z,45.90
2022-12-04T05:06:23.023Z,53.20
2022-12-04T05:08:50.246Z,46.28
2022-12-04T05:11:17.856Z,61.63
2022-12-04T05:13:45.179Z,60.00
2022-12-04T05:16:14.351Z,57.70
2022-12-04T05:18:43.125Z,48.85
2022-12-04T05:21:16.382Z,50.65
2022-12-04T05:23:43.639Z,44.92
2022-12-04T05:26:10.836Z,55.33
2022-12-04T05:28:39.563Z,59.63
2022-12-04T05:31:06.849Z,52.85
2022-12-04T05:33:34.042Z,55.00
2022-12-04T05:36:03.274Z,66.22
2022-12-04T05:38:30.774Z,54.67
2022-12-04T05:41:02.443Z,58.30
2022-12-04T05:43:29.909Z,41.28
2022-12-04T05:46:07.536Z,45.35
2022-12-04T05:48:35.668Z,54.00
2022-12-04T05:51:07.570Z,53.90
2022-12-04T05:53:35.038Z,56.97
2022-12-04T05:56:03.099Z,49.33
2022-12-04T05:58:30.647Z,51.42
2022-12-04T06:00:57.950Z,49.30
2022-12-04T06:03:25.268Z,47.30
2022-12-04T06:05:52.551Z,56.07
2022-12-04T06:08:19.809Z,50.15
2022-12-04T06:10:47.068Z,51.30
2022-12-04T06:13:14.285Z,53.42
2022-12-04T06:15:41.400Z,43.22
2022-12-04T06:18:08.639Z,48.17
2022-12-04T06:20:36.011Z,47.90
2022-12-04T06:23:03.428Z,53.55
2022-12-04T06:25:30.644Z,51.78
2022-12-04T06:27:57.835Z,45.53
2022-12-04T06:30:24.640Z,55.60
2022-12-04T06:32:51.885Z,54.67
2022-12-04T06:35:19.119Z,54.58
2022-12-04T06:37:46.363Z,48.08
2022-12-04T06:40:13.660Z,47.00
2022-12-04T06:42:40.856Z,46.47
2022-12-04T06:45:08.304Z,43.40
2022-12-04T06:47:36.233Z,49.22
2022-12-04T06:50:04.520Z,49.33
2022-12-04T06:52:36.055Z,52.47
2022-12-04T06:55:03.278Z,50.03
2022-12-04T06:57:30.449Z,47.85
2022-12-04T06:59:57.982Z,46.97
2022-12-04T07:02:25.487Z,53.97
2022-12-04T07:04:56.266Z,53.72
2022-12-04T07:07:23.828Z,59.93
2022-12-04T07:09:51.068Z,53.03
2022-12-04T07:12:18.325Z,58.03
2022-12-04T07:14:45.113Z,54.72
2022-12-04T07:17:12.433Z,60.38
2022-12-04T07:19:39.683Z,44.43
2022-12-04T07:22:08.901Z,48.60
2022-12-04T07:24:37.472Z,50.03
2022-12-04T07:27:04.831Z,53.20
2022-12-04T07:29:32.009Z,49.88
2022-12-04T07:31:59.272Z,48.33
2022-12-04T07:34:26.524Z,42.75
2022-12-04T07:36:53.727Z,52.88
2022-12-04T07:39:20.947Z,51.78
2022-12-04T07:41:48.212Z,48.42
2022-12-04T07:44:15.399Z,49.77
2022-12-04T07:46:42.698Z,50.40
2022-12-04T07:49:12.789Z,46.92
2022-12-04T07:51:40.086Z,50.15
2022-12-04T07:54:08.767Z,49.80
2022-12-04T07:56:35.914Z,54.13
2022-12-04T07:59:03.245Z,52.90
2022-12-04T08:01:30.817Z,51.33
2022-12-04T08:03:59.735Z,53.38
2022-12-04T08:06:28.244Z,49.08
2022-12-04T08:08:55.416Z,46.47
2022-12-04T08:11:24.067Z,46.85
2022-12-04T08:14:02.016Z,46.65
2022-12-04T08:16:31.042Z,47.15
2022-12-04T08:18:58.633Z,57.72
2022-12-04T08:21:28.084Z,58.20
2022-12-04T08:23:56.705Z,56.92
2022-12-04T08:26:25.941Z,60.15
2022-12-04T08:28:54.414Z,44.15
2022-12-04T08:31:24.404Z,53.40
2022-12-04T08:33:53.419Z,50.90
2022-12-04T08:36:22.386Z,50.78
2022-12-04T08:38:50.922Z,52.35
2022-12-04T08:41:19.873Z,51.45
2022-12-04T08:43:47.107Z,49.72
2022-12-04T08:46:16.240Z,46.73
2022-12-04T08:48:43.836Z,56.38
2022-12-04T08:51:19.035Z,56.47
2022-12-04T08:53:46.677Z,57.00
2022-12-04T08:56:14.216Z,40.70
2022-12-04T08:58:41.644Z,53.97
2022-12-04T09:01:12.957Z,45.30
2022-12-04T09:03:40.602Z,49.22
2022-12-04T09:06:09.631Z,55.95
2022-12-04T09:08:37.514Z,49.28
2022-12-04T09:11:10.102Z,46.97
2022-12-04T09:13:37.514Z,39.83
2022-12-04T09:16:06.960Z,46.30
2022-12-04T09:18:35.503Z,51.05
2022-12-04T09:21:05.366Z,50.50
2022-12-04T09:23:32.616Z,52.33
2022-12-04T09:25:59.788Z,36.00
2022-12-04T09:28:27.154Z,50.10
2022-12-04T09:31:05.465Z,52.78
2022-12-04T09:33:33.194Z,53.53
2022-12-04T09:36:00.779Z,45.97
2022-12-04T09:38:28.884Z,52.53
2022-12-04T09:41:29.490Z,50.60
2022-12-04T09:44:10.316Z,53.17
2022-12-04T09:46:58.952Z,49.05
2022-12-04T09:49:26.288Z,44.00
2022-12-04T09:51:57.495Z,49.88
2022-12-04T09:54:30.628Z,46.22
2022-12-04T09:57:10.581Z,44.65
2022-12-04T09:59:38.259Z,49.15
2022-12-04T10:02:26.386Z,45.53
2022-12-04T10:04:53.626Z,46.42
2022-12-04T10:07:25.830Z,55.70
2022-12-04T10:10:05.605Z,47.22
2022-12-04T10:12:32.802Z,33.33
2022-12-04T10:15:24.726Z,40.83
2022-12-04T10:18:02.716Z,45.80
2022-12-04T10:21:06.616Z,51.05
2022-12-04T10:23:33.832Z,40.63
2022-12-04T10:26:03.264Z,47.88
2022-12-04T10:28:30.453Z,37.63
2022-12-04T10:31:01.625Z,45.70
2022-12-04T10:33:45.767Z,37.22
2022-12-04T10:36:17.489Z,41.55
2022-12-04T10:38:56.766Z,46.97
2022-12-04T10:41:41.247Z,43.03
2022-12-04T10:44:15.381Z,45.45
2022-12-04T10:46:45.875Z,31.58
2022-12-04T10:49:19.241Z,40.55
2022-12-04T10:51:47.359Z,42.63
2022-12-04T10:54:40.362Z,35.80
2022-12-04T10:57:10.078Z,37.08
2022-12-04T10:59:56.077Z,41.70
2022-12-04T11:02:28.959Z,38.72
2022-12-04T11:05:05.298Z,30.15
2022-12-04T11:07:43.154Z,38.33
2022-12-04T11:10:34.209Z,36.53
2022-12-04T11:13:04.694Z,41.30
2022-12-04T11:15:31.894Z,34.90
2022-12-04T11:18:16.109Z,35.38
2022-12-04T11:20:53.460Z,31.27
2022-12-04T11:23:20.911Z,33.60
2022-12-04T11:25:50.261Z,29.83
2022-12-04T11:28:40.454Z,36.33
2022-12-04T11:31:11.153Z,32.22
2022-12-04T11:33:44.754Z,25.30
2022-12-04T11:36:49.428Z,27.85
2022-12-04T11:39:21.830Z,28.15
2022-12-04T11:42:00.927Z,23.73
2022-12-04T11:44:31.355Z,25.35
2022-12-04T11:47:01.894Z,32.33
2022-12-04T11:49:30.716Z,27.90
2022-12-04T11:52:30.044Z,28.30
2022-12-04T11:55:02.565Z,25.52
2022-12-04T11:57:50.354Z,27.98
2022-12-04T12:00:20.414Z,29.93
2022-12-04T12:03:10.692Z,34.20
2022-12-04T12:05:38.042Z,27.48
2022-12-04T12:08:05.264Z,23.92
2022-12-04T12:11:14.341Z,22.77
2022-12-04T12:14:14.322Z,28.57
2022-12-04T12:17:07.956Z,24.45
2022-12-04T12:20:17.444Z,27.35
2022-12-04T12:22:49.973Z,27.00
2022-12-04T12:25:21.549Z,28.70
2022-12-04T12:28:13.273Z,22.27
2022-12-04T12:31:06.424Z,16.75
2022-12-04T12:33:56.884Z,25.98
2022-12-04T12:36:26.527Z,24.25
2022-12-04T12:39:11.020Z,26.38
2022-12-04T12:41:43.918Z,30.10
2022-12-04T12:44:23.184Z,30.45
2022-12-04T12:47:28.663Z,30.52
2022-12-04T12:49:55.952Z,19.10
2022-12-04T12:52:43.437Z,31.15
2022-12-04T12:55:20.011Z,30.67
2022-12-04T12:57:58.749Z,29.48
2022-12-04T13:00:26.288Z,28.38
2022-12-04T13:03:01.447Z,22.77
2022-12-04T13:05:43.271Z,26.90
2022-12-04T13:08:34.006Z,30.07
2022-12-04T13:11:25.606Z,30.40
2022-12-04T13:13:57.020Z,22.35
2022-12-04T13:16:24.272Z,24.20
2022-12-04T13:19:18.561Z,25.40
2022-12-04T13:22:03.673Z,22.77
2022-12-04T13:24:39.377Z,29.13
2022-12-04T13:27:21.333Z,38.17
2022-12-04T13:30:18.590Z,22.77
2022-12-04T13:33:10.161Z,26.17
2022-12-04T13:36:11.600Z,22.30
2022-12-04T13:38:57.853Z,28.08
2022-12-04T13:41:27.104Z,14.68
2022-12-04T13:43:54.671Z,21.48
2022-12-04T13:46:30.470Z,28.02
2022-12-04T13:49:22.255Z,20.57
2022-12-04T13:51:49.775Z,22.88
2022-12-04T13:54:16.999Z,28.52
2022-12-04T13:56:55.840Z,29.02
2022-12-04T13:59:30.494Z,21.73
2022-12-04T14:02:08.008Z,23.93
2022-12-04T14:04:46.086Z,25.25
2022-12-04T14:07:31.929Z,19.95
2022-12-04T14:10:04.587Z,26.80
2022-12-04T14:12:38.800Z,22.15
2022-12-04T14:15:23.827Z,28.57
2022-12-04T14:18:01.736Z,28.52
2022-12-04T14:20:32.059Z,30.20
2022-12-04T14:23:27.399Z,23.33
2022-12-04T14:25:57.705Z,25.70
2022-12-04T14:28:34.967Z,21.10
2022-12-04T14:31:05.898Z,20.90
2022-12-04T14:33:45.488Z,25.05
2022-12-04T14:36:20.441Z,24.50
2022-12-04T14:38:50.729Z,20.52
2022-12-04T14:41:25.937Z,26.77
2022-12-04T14:43:53.458Z,29.55
2022-12-04T14:46:21.955Z,23.60
2022-12-04T14:49:27.105Z,24.13
2022-12-04T14:52:11.178Z,24.67
2022-12-04T14:55:21.919Z,28.07
2022-12-04T14:57:49.157Z,32.20
2022-12-04T15:00:24.756Z,24.90
2022-12-04T15:02:58.483Z,25.02
2022-12-04T15:05:25.748Z,31.55
2022-12-04T15:07:56.776Z,30.87
2022-12-04T15:10:50.881Z,21.75
2022-12-04T15:13:32.463Z,31.02
2022-12-04T15:16:15.529Z,26.58
2022-12-04T15:18:59.726Z,35.70
2022-12-04T15:21:40.804Z,31.43
2022-12-04T15:24:09.485Z,35.95
2022-12-04T15:26:37.592Z,33.42
2022-12-04T15:29:07.178Z,38.17
2022-12-04T15:31:48.354Z,35.15
2022-12-04T15:34:18.430Z,32.23
2022-12-04T15:36:52.016Z,24.33
2022-12-04T15:39:27.832Z,38.17
2022-12-04T15:42:23.159Z,36.45
2022-12-04T15:45:10.243Z,37.13
2022-12-04T15:47:41.076Z,39.70
2022-12-04T15:50:16.687Z,41.95
2022-12-04T15:53:14.386Z,34.70
2022-12-04T15:55:53.816Z,38.80
2022-12-04T15:58:41.441Z,36.63
2022-12-04T16:01:11.080Z,34.73
2022-12-04T16:03:50.406Z,41.92
2022-12-04T16:06:27.450Z,43.60
2022-12-04T16:09:14.541Z,49.03
2022-12-04T16:11:42.829Z,42.05
2022-12-04T16:14:10.043Z,37.77
2022-12-04T16:16:43.581Z,41.65
2022-12-04T16:19:36.319Z,49.67
2022-12-04T16:22:10.382Z,46.15
2022-12-04T16:24:37.907Z,39.13
2022-12-04T16:27:12.481Z,40.67
2022-12-04T16:29:42.880Z,45.97
2022-12-04T16:32:16.464Z,33.17
2022-12-04T16:34:43.618Z,44.17
2022-12-04T16:37:19.907Z,42.60
2022-12-04T16:39:47.480Z,50.50
2022-12-04T16:42:23.551Z,43.25
2022-12-04T16:44:50.962Z,42.00
2022-12-04T16:47:18.268Z,43.20
2022-12-04T16:49:47.906Z,36.42
2022-12-04T16:52:15.164Z,46.07
2022-12-04T16:54:42.616Z,34.17
2022-12-04T16:57:10.314Z,46.78
2022-12-04T16:59:37.754Z,46.80
2022-12-04T17:02:12.961Z,40.55
2022-12-04T17:04:40.372Z,43.00
2022-12-04T17:07:07.602Z,42.97
2022-12-04T17:09:34.764Z,42.67
2022-12-04T17:12:01.959Z,41.15
2022-12-04T17:14:29.223Z,52.28
2022-12-04T17:16:58.652Z,35.43
2022-12-04T17:19:25.862Z,39.40
2022-12-04T17:21:53.101Z,40.50
2022-12-04T17:24:20.376Z,43.33
2022-12-04T17:26:47.591Z,45.25
2022-12-04T17:29:14.534Z,41.30
2022-12-04T17:31:41.791Z,41.70
2022-12-04T17:34:09.066Z,39.30
2022-12-04T17:36:36.311Z,44.30
2022-12-04T17:39:03.684Z,34.55
2022-12-04T17:41:31.020Z,40.97
2022-12-04T17:43:59.931Z,36.47
2022-12-04T17:46:26.781Z,38.33
2022-12-04T17:48:56.640Z,43.80
2022-12-04T17:51:24.963Z,41.80
2022-12-04T17:53:52.264Z,46.13
2022-12-04T17:56:22.170Z,41.08
2022-12-04T17:58:49.811Z,48.25
2022-12-04T18:01:22.475Z,38.45
2022-12-04T18:03:58.185Z,34.58
2022-12-04T18:06:27.430Z,31.73
2022-12-04T18:08:54.994Z,45.72
2022-12-04T18:11:24.528Z,46.30
2022-12-04T18:14:08.565Z,40.33
2022-12-04T18:16:42.570Z,41.55
2022-12-04T18:19:10.913Z,37.57
2022-12-04T18:21:38.161Z,40.67
2022-12-04T18:24:05.920Z,36.38
2022-12-04T18:26:35.630Z,39.13
2022-12-04T18:29:02.922Z,37.30
2022-12-04T18:31:30.158Z,34.00
2022-12-04T18:33:57.362Z,30.92
2022-12-04T18:36:28.368Z,38.28
2022-12-04T18:38:57.930Z,31.35
2022-12-04T18:41:25.452Z,34.88
2022-12-04T18:43:52.723Z,69.03
2022-12-04T18:46:20.522Z,34.28
2022-12-04T18:48:48.508Z,35.25
2022-12-04T18:51:24.139Z,40.15
2022-12-04T18:53:53.294Z,33.42
2022-12-04T18:56:21.528Z,40.40
2022-12-04T18:58:49.035Z,36.40
2022-12-04T19:01:18.953Z,40.63
2022-12-04T19:03:47.444Z,34.45
2022-12-04T19:06:14.787Z,36.20
2022-12-04T19:08:43.408Z,34.27
2022-12-04T19:11:15.441Z,38.88
2022-12-04T19:13:42.884Z,37.75
2022-12-04T19:16:14.622Z,37.55
2022-12-04T19:18:45.024Z,41.45
2022-12-04T19:21:12.459Z,39.30
2022-12-04T19:23:39.666Z,34.58
2022-12-04T19:26:06.887Z,39.35
2022-12-04T19:28:33.740Z,43.05
2022-12-04T19:31:00.968Z,35.92
2022-12-04T19:33:28.798Z,46.27
2022-12-04T19:36:01.258Z,34.05
2022-12-04T19:38:28.763Z,30.85
2022-12-04T19:41:10.132Z,39.42
2022-12-04T19:43:42.220Z,39.95
2022-12-04T19:46:11.544Z,44.07
2022-12-04T19:48:38.958Z,46.47
2022-12-04T19:51:08.448Z,43.03
2022-12-04T19:53:40.672Z,47.10
2022-12-04T19:56:14.013Z,50.10
2022-12-04T19:58:41.459Z,41.27
2022-12-04T20:01:12.213Z,48.63
2022-12-04T20:03:39.459Z,46.45
2022-12-04T20:06:14.301Z,42.00
2022-12-04T20:08:42.374Z,45.33
2022-12-04T20:11:12.259Z,40.47
2022-12-04T20:13:40.203Z,47.00
2022-12-04T20:16:11.520Z,38.65
2022-12-04T20:18:39.552Z,45.67
2022-12-04T20:21:11.106Z,44.55
2022-12-04T20:23:42.498Z,46.63
2022-12-04T20:26:12.406Z,48.42
2022-12-04T20:28:39.734Z,43.20
2022-12-04T20:31:18.166Z,47.22
2022-12-04T20:33:47.156Z,47.13
2022-12-04T20:36:15.636Z,42.90
2022-12-04T20:38:43.268Z,47.30
2022-12-04T20:41:13.629Z,43.55
2022-12-04T20:43:40.440Z,53.13
2022-12-04T20:46:35.106Z,46.55
2022-12-04T20:49:04.361Z,45.77
2022-12-04T20:51:33.881Z,47.80
2022-12-04T20:54:01.552Z,49.78
2022-12-04T20:56:31.574Z,44.45
2022-12-04T20:59:00.153Z,48.13
2022-12-04T21:01:28.115Z,47.17
2022-12-04T21:03:55.541Z,49.05
2022-12-04T21:06:34.544Z,51.47
2022-12-04T21:09:22.091Z,48.30
2022-12-04T21:11:52.841Z,51.70
2022-12-04T21:14:41.039Z,46.40
2022-12-04T21:17:10.924Z,51.92
2022-12-04T21:19:38.549Z,39.95
2022-12-04T21:22:05.807Z,48.40
2022-12-04T21:24:38.196Z,43.42
2022-12-04T21:27:07.731Z,53.90
2022-12-04T21:29:35.136Z,50.55
2022-12-04T21:32:02.506Z,48.80
2022-12-04T21:34:29.753Z,50.70
2022-12-04T21:36:57.080Z,44.30
2022-12-04T21:39:25.248Z,44.93
2022-12-04T21:42:11.135Z,45.10
2022-12-04T21:44:38.812Z,48.10
2022-12-04T21:47:06.084Z,38.55
2022-12-04T21:49:33.296Z,41.72
2022-12-04T21:52:00.493Z,47.27
2022-12-04T21:54:28.650Z,47.08
2022-12-04T21:56:56.584Z,47.50
2022-12-04T21:59:24.933Z,47.10
2022-12-04T22:01:52.545Z,36.65
2022-12-04T22:04:19.916Z,49.00
2022-12-04T22:06:47.159Z,48.20
2022-12-04T22:09:14.466Z,48.85
2022-12-04T22:11:42.094Z,49.03
2022-12-04T22:14:10.168Z,45.45
2022-12-04T22:16:41.846Z,45.87
2022-12-04T22:19:10.483Z,37.67
2022-12-04T22:21:38.107Z,48.85
2022-12-04T22:24:05.357Z,49.67
2022-12-04T22:26:32.764Z,46.67
2022-12-04T22:29:00.052Z,49.50
2022-12-04T22:31:28.735Z,48.47
2022-12-04T22:33:57.905Z,47.33
2022-12-04T22:36:29.544Z,50.75
2022-12-04T22:39:12.139Z,46.50
2022-12-04T22:41:39.610Z,47.27
2022-12-04T22:44:07.008Z,44.88
2022-12-04T22:46:34.345Z,51.60
2022-12-04T22:49:04.081Z,42.30
2022-12-04T22:51:31.316Z,50.42
2022-12-04T22:53:58.869Z,48.67
2022-12-04T22:56:28.358Z,46.42
2022-12-04T22:58:55.669Z,46.47
2022-12-04T23:01:25.343Z,52.50
2022-12-04T23:03:53.397Z,45.55
2022-12-04T23:06:22.297Z,46.57
2022-12-04T23:08:49.712Z,50.95
2022-12-04T23:11:19.181Z,42.00
2022-12-04T23:13:53.712Z,44.20
2022-12-04T23:16:22.233Z,49.75
2022-12-04T23:18:49.880Z,45.40
2022-12-04T23:21:17.282Z,43.42
2022-12-04T23:23:45.984Z,49.78
2022-12-04T23:26:16.396Z,50.30
2022-12-04T23:28:43.916Z,45.97
2022-12-04T23:31:11.517Z,44.10
2022-12-04T23:33:39.450Z,32.28
2022-12-04T23:36:08.305Z,41.10
2022-12-04T23:38:36.893Z,41.05
2022-12-04T23:41:04.034Z,42.55
2022-12-04T23:43:31.595Z,43.90
2022-12-04T23:45:58.833Z,43.72
2022-12-04T23:48:26.030Z,44.13
2022-12-04T23:50:53.445Z,45.70
2022-12-04T23:53:21.387Z,42.97
2022-12-04T23:56:11.708Z,50.07
2022-12-04T23:58:39.023Z,44.95
